createdAt,value
2022-12-23T00:04:04.284Z,75.5
2022-12-23T00:09:42.171Z,75.7
2022-12-23T00:15:19.123Z,75.7
2022-12-23T00:21:09.499Z,75.8
2022-12-23T00:26:48.631Z,75.9
2022-12-23T00:32:24.571Z,76.1
2022-12-23T00:37:59.746Z,76
2022-12-23T00:43:34.947Z,75.8
2022-12-23T00:49:33.121Z,76.3
2022-12-23T00:55:05.875Z,76.5
2022-12-23T01:00:41.098Z,76.8
2022-12-23T01:06:37.731Z,76.6
2022-12-23T01:12:12.547Z,76.6
2022-12-23T01:18:37.249Z,76.5
2022-12-23T01:24:39.091Z,76.6
2022-12-23T01:30:23.400Z,76.7
2022-12-23T01:35:59.038Z,76.8
2022-12-23T01:41:36.806Z,76.7
2022-12-23T01:48:15.970Z,76.9
2022-12-23T01:53:49.084Z,77
2022-12-23T01:59:28.663Z,77.1
2022-12-23T02:05:12.887Z,77.1
2022-12-23T02:10:53.977Z,76.9
2022-12-23T02:16:34.270Z,76.9
2022-12-23T02:22:34.686Z,77.1
2022-12-23T02:28:12.787Z,77.1
2022-12-23T02:33:47.885Z,77.4
2022-12-23T02:39:42.519Z,77.2
2022-12-23T02:45:48.464Z,76.8
2022-12-23T02:51:25.288Z,76.9
2022-12-23T02:57:22.981Z,76.9
2022-12-23T03:03:02.017Z,77.3
2022-12-23T03:08:39.034Z,77.2
2022-12-23T03:14:18.235Z,77.3
2022-12-23T03:19:56.728Z,77.1
2022-12-23T03:26:02.081Z,77.1
2022-12-23T03:31:45.494Z,77.6
2022-12-23T03:37:21.233Z,77.6
2022-12-23T03:42:56.139Z,77.4
2022-12-23T03:49:23.072Z,77.5
2022-12-23T03:54:56.064Z,77.6
2022-12-23T04:00:45.456Z,77.9
2022-12-23T04:06:40.488Z,77.8
2022-12-23T04:12:58.319Z,78
2022-12-23T04:18:42.410Z,79
2022-12-23T04:24:18.425Z,78.5
2022-12-23T04:30:01.764Z,78.9
2022-12-23T04:36:21.859Z,78.6
2022-12-23T04:41:58.399Z,78.6
2022-12-23T04:48:04.321Z,78.6
2022-12-23T04:53:37.977Z,78.1
2022-12-23T04:59:14.076Z,78.5
2022-12-23T05:04:54.300Z,78.3
2022-12-23T05:10:30.925Z,78.5
2022-12-23T05:16:06.407Z,78.3
2022-12-23T05:21:51.801Z,78.5
2022-12-23T05:27:44.872Z,78.7
2022-12-23T05:33:20.456Z,78.8
2022-12-23T05:38:56.448Z,78.6
2022-12-23T05:44:51.724Z,78.6
2022-12-23T05:50:35.127Z,78.5
2022-12-23T05:56:10.963Z,78.9
2022-12-23T06:01:58.835Z,79
2022-12-23T06:07:35.973Z,78.7
2022-12-23T06:13:11.769Z,78
2022-12-23T06:18:51.191Z,77.8
2022-12-23T06:24:26.050Z,78
2022-12-23T06:30:01.258Z,77.8
2022-12-23T06:35:43.679Z,77.6
2022-12-23T06:41:19.070Z,77.4
2022-12-23T06:47:15.823Z,78.5
2022-12-23T06:52:48.639Z,78.3
2022-12-23T06:58:42.417Z,78.7
2022-12-23T07:04:24.075Z,78.9
2022-12-23T07:10:00.689Z,78.5
2022-12-23T07:15:43.721Z,78.3
2022-12-23T07:21:30.092Z,78
2022-12-23T07:27:05.617Z,78
2022-12-23T07:32:41.201Z,78.3
2022-12-23T07:38:16.349Z,78.4
2022-12-23T07:44:37.339Z,78.8
2022-12-23T07:50:12.603Z,78.5
2022-12-23T07:55:56.725Z,79.2
2022-12-23T08:01:32.767Z,79.4
2022-12-23T08:07:49.217Z,79.3
2022-12-23T08:13:28.789Z,78.7
2022-12-23T08:19:05.020Z,78.1
2022-12-23T08:24:43.046Z,78.2
2022-12-23T08:30:19.506Z,78.4
2022-12-23T08:35:56.127Z,79.6
2022-12-23T08:41:31.647Z,81.4
2022-12-23T08:47:12.332Z,82.5
2022-12-23T08:52:48.635Z,83.2
2022-12-23T08:58:41.411Z,82.3
2022-12-23T09:04:17.428Z,82.1
2022-12-23T09:09:56.680Z,82.1
2022-12-23T09:15:56.120Z,80.2
2022-12-23T09:21:47.849Z,80.1
2022-12-23T09:27:34.362Z,77.8
2022-12-23T09:33:21.492Z,78.9
2022-12-23T09:39:10.438Z,78.3
2022-12-23T09:44:46.256Z,77.4
2022-12-23T09:50:24.235Z,76.8
2022-12-23T09:55:59.676Z,75.3
2022-12-23T10:01:45.544Z,75.1
2022-12-23T10:07:22.299Z,76.1
2022-12-23T10:12:58.049Z,73.7
2022-12-23T10:18:41.481Z,71.4
2022-12-23T10:24:46.764Z,72.7
2022-12-23T10:31:40.111Z,70.3
2022-12-23T10:37:24.708Z,68.7
2022-12-23T10:43:02.858Z,70.7
2022-12-23T10:49:11.543Z,72.1
2022-12-23T10:54:56.164Z,71.2
2022-12-23T11:00:51.032Z,69.5
2022-12-23T11:06:37.850Z,70
2022-12-23T11:12:13.275Z,65.6
2022-12-23T11:17:48.575Z,70.9
2022-12-23T11:23:37.227Z,70.9
2022-12-23T11:29:12.686Z,72.1
2022-12-23T11:34:56.536Z,73.3
2022-12-23T11:40:59.518Z,71.7
2022-12-23T11:46:42.955Z,70.1
2022-12-23T11:52:31.437Z,74
2022-12-23T11:58:16.339Z,74.8
2022-12-23T12:04:13.018Z,72.2
2022-12-23T12:10:47.640Z,74.7
2022-12-23T12:16:24.835Z,75.5
2022-12-23T12:22:01.144Z,74.1
2022-12-23T12:27:37.242Z,76.1
2022-12-23T12:33:12.589Z,74.7
2022-12-23T12:38:48.469Z,73.5
2022-12-23T12:44:35.666Z,69.3
2022-12-23T12:50:12.489Z,67.7
2022-12-23T12:55:48.384Z,68.2
2022-12-23T13:01:50.924Z,70.6
2022-12-23T13:07:26.810Z,72
2022-12-23T13:13:22.552Z,71.7
2022-12-23T13:19:00.633Z,69.2
2022-12-23T13:25:00.178Z,73
2022-12-23T13:30:54.035Z,72.9
2022-12-23T13:36:34.324Z,71.6
2022-12-23T13:42:12.078Z,74.1
2022-12-23T13:48:26.389Z,74.8
2022-12-23T13:54:05.407Z,74.8
2022-12-23T13:59:41.084Z,75.3
2022-12-23T14:05:24.654Z,75.7
2022-12-23T14:11:06.281Z,72.8
2022-12-23T14:16:44.412Z,68.6
2022-12-23T14:22:32.341Z,68.1
2022-12-23T14:28:08.358Z,67.9
2022-12-23T14:34:11.672Z,67.1
2022-12-23T14:39:55.514Z,68
2022-12-23T14:45:31.860Z,66.5
2022-12-23T14:51:07.015Z,66.9
2022-12-23T14:56:44.555Z,67.7
2022-12-23T15:02:24.810Z,68.4
2022-12-23T15:08:01.052Z,70
2022-12-23T15:13:37.258Z,67.7
2022-12-23T15:19:20.299Z,66.5
2022-12-23T15:25:03.686Z,67.1
2022-12-23T15:30:38.875Z,66.9
2022-12-23T15:36:15.298Z,68.2
2022-12-23T15:41:50.722Z,71
2022-12-23T15:47:47.141Z,71.4
2022-12-23T15:53:20.115Z,73.4
2022-12-23T15:59:17.154Z,72.9
2022-12-23T16:05:51.924Z,73.8
2022-12-23T16:11:37.244Z,73.2
2022-12-23T16:17:12.429Z,73.5
2022-12-23T16:23:09.248Z,74.5
2022-12-23T16:28:45.770Z,74.6
2022-12-23T16:34:21.914Z,72.4
2022-12-23T16:40:12.860Z,72.8
2022-12-23T16:45:48.777Z,73.8
2022-12-23T16:51:24.553Z,75.1
2022-12-23T16:57:05.743Z,72.6
2022-12-23T17:02:41.326Z,71
2022-12-23T17:08:19.244Z,69.4
2022-12-23T17:14:16.546Z,72.8
2022-12-23T17:20:11.607Z,73.4
2022-12-23T17:25:54.381Z,73.2
2022-12-23T17:31:29.650Z,73.5
2022-12-23T17:37:12.487Z,73.8
2022-12-23T17:43:05.315Z,74.2
2022-12-23T17:48:58.179Z,74.6
2022-12-23T17:54:33.710Z,74.8
2022-12-23T18:00:09.988Z,75
2022-12-23T18:05:46.929Z,75.1
2022-12-23T18:11:22.766Z,75.7
2022-12-23T18:16:58.992Z,76
2022-12-23T18:22:35.567Z,76
2022-12-23T18:28:20.450Z,75.8
2022-12-23T18:34:43.593Z,75.9
2022-12-23T18:40:32.677Z,75.7
2022-12-23T18:47:32.664Z,75.2
2022-12-23T18:53:06.077Z,75.5
2022-12-23T18:58:42.476Z,75.7
2022-12-23T19:04:19.466Z,75.6
2022-12-23T19:09:58.323Z,75.3
2022-12-23T19:15:33.829Z,75.6
2022-12-23T19:21:10.478Z,75.8
2022-12-23T19:26:47.052Z,75.8
2022-12-23T19:33:16.103Z,74.5
2022-12-23T19:38:58.508Z,74.9
2022-12-23T19:44:36.883Z,74.4
2022-12-23T19:50:35.251Z,75.3
2022-12-23T19:56:10.094Z,75.3
2022-12-23T20:01:48.818Z,75.2
2022-12-23T20:07:40.210Z,75.1
2022-12-23T20:13:33.176Z,74.7
2022-12-23T20:19:24.227Z,74.8
2022-12-23T20:25:09.226Z,74.8
2022-12-23T20:30:44.791Z,74.9
2022-12-23T20:36:21.221Z,74.8
2022-12-23T20:42:00.010Z,74.4
2022-12-23T20:47:57.271Z,74.6
2022-12-23T20:53:30.734Z,74.9
2022-12-23T20:59:36.672Z,75
2022-12-23T21:05:45.318Z,75
2022-12-23T21:11:21.760Z,75.1
2022-12-23T21:16:57.011Z,75.1
2022-12-23T21:22:41.060Z,75.7
2022-12-23T21:28:19.909Z,76
2022-12-23T21:33:56.714Z,76.2
2022-12-23T21:39:36.948Z,76
2022-12-23T21:45:12.719Z,75.7
2022-12-23T21:50:47.830Z,75.4
2022-12-23T21:56:25.126Z,75.1
2022-12-23T22:02:04.056Z,74.8
2022-12-23T22:07:39.579Z,74.8
2022-12-23T22:13:18.475Z,75.4
2022-12-23T22:19:05.105Z,75.6
2022-12-23T22:24:40.888Z,75.7
2022-12-23T22:30:17.737Z,75.4
2022-12-23T22:35:56.892Z,75.7
2022-12-23T22:41:48.737Z,75.4
2022-12-23T22:48:08.019Z,75.2
2022-12-23T22:53:41.270Z,75.1
2022-12-23T22:59:17.524Z,74.9
2022-12-23T23:04:52.444Z,74.8
2022-12-23T23:10:29.081Z,74.8
2022-12-23T23:16:04.375Z,74.7
2022-12-23T23:21:39.808Z,74.9
2022-12-23T23:27:24.798Z,74.6
2022-12-23T23:32:59.815Z,74.8
2022-12-23T23:39:00.884Z,75.4
2022-12-23T23:44:48.060Z,76.1
2022-12-23T23:50:23.131Z,75.6
2022-12-23T23:56:03.988Z,75.4
